Time;durP1;ratioP1;P1;durP2;ratioP2;P2;SDS_P1;SDS_P2;PMS_P1;PMS_P2;Temp;Humidity;BMP_temperature;BMP_pressure;BME280_temperature;BME280_humidity;BME280_pressure;Samples;Min_cycle;Max_cycle;Signal;HPM_P1;HPM_P2
2021/07/04 00:00:47;;;;;;;5.10;4.70;;;26.70;51.90;;;;;;5023817;28;20744;-48
2021/07/04 00:03:13;;;;;;;4.30;3.90;;;26.70;51.90;;;;;;5026325;28;20287;-46
2021/07/04 00:05:41;;;;;;;4.50;4.20;;;26.70;51.80;;;;;;5019731;28;20512;-46
2021/07/04 00:08:14;;;;;;;5.07;4.57;;;26.70;51.90;;;;;;5031110;28;20246;-48
2021/07/04 00:11:03;;;;;;;4.43;4.03;;;26.70;51.80;;;;;;5023518;28;20448;-47
2021/07/04 00:13:30;;;;;;;4.20;3.80;;;26.70;51.80;;;;;;5021350;28;20495;-46
2021/07/04 00:15:57;;;;;;;3.90;3.60;;;26.70;51.70;;;;;;5025338;28;21241;-49
2021/07/04 00:18:24;;;;;;;4.80;4.40;;;26.70;51.50;;;;;;5025364;28;20440;-48
2021/07/04 00:20:51;;;;;;;4.20;3.90;;;26.80;51.50;;;;;;5020554;28;20561;-46
2021/07/04 00:23:18;;;;;;;4.43;4.03;;;26.70;51.50;;;;;;5026314;28;20463;-47
2021/07/04 00:25:44;;;;;;;4.47;4.07;;;26.80;51.60;;;;;;5029478;28;20531;-49
2021/07/04 00:28:10;;;;;;;4.37;3.97;;;26.70;51.60;;;;;;5028157;28;20466;-49
2021/07/04 00:30:36;;;;;;;5.77;5.03;;;26.70;51.70;;;;;;5025643;28;20436;-48
2021/07/04 00:33:03;;;;;;;5.70;5.10;;;26.80;51.70;;;;;;5028822;28;20443;-46
2021/07/04 00:35:29;;;;;;;5.73;5.27;;;26.80;51.40;;;;;;5020547;28;20196;-50
2021/07/04 00:37:55;;;;;;;4.27;3.97;;;26.80;51.90;;;;;;5022402;28;20452;-47
2021/07/04 00:40:22;;;;;;;7.03;5.33;;;26.70;51.90;;;;;;5024001;28;20502;-46
2021/07/04 00:42:47;;;;;;;4.70;4.30;;;26.70;51.90;;;;;;5024608;28;20193;-46
2021/07/04 00:45:22;;;;;;;4.77;4.37;;;26.70;51.70;;;;;;5026042;28;20490;-46
2021/07/04 00:47:48;;;;;;;4.90;4.60;;;26.70;51.60;;;;;;5025342;28;20203;-46
2021/07/04 00:50:16;;;;;;;6.57;4.40;;;26.60;51.80;;;;;;5024765;28;20796;-49
2021/07/04 00:52:43;;;;;;;5.67;5.17;;;26.50;52.00;;;;;;5023290;28;20440;-51
2021/07/04 00:55:11;;;;;;;4.80;4.40;;;26.50;51.90;;;;;;5026446;28;20475;-47
2021/07/04 00:57:37;;;;;;;6.83;5.37;;;26.70;51.70;;;;;;5020168;28;20533;-51
2021/07/04 01:00:08;;;;;;;6.80;4.63;;;26.70;51.70;;;;;;5026047;28;20575;-49
2021/07/04 01:02:34;;;;;;;5.27;4.77;;;26.70;51.60;;;;;;5024879;28;20198;-46
2021/07/04 01:04:59;;;;;;;5.47;5.00;;;26.80;51.40;;;;;;5017372;28;20545;-52
2021/07/04 01:07:25;;;;;;;5.13;4.63;;;26.80;51.60;;;;;;5026858;28;20279;-47
2021/07/04 01:09:52;;;;;;;5.10;4.70;;;26.80;51.70;;;;;;5023399;28;20200;-47
2021/07/04 01:12:17;;;;;;;5.33;4.83;;;26.80;52.20;;;;;;5022014;28;20447;-47
2021/07/04 01:14:43;;;;;;;5.30;4.50;;;26.80;51.60;;;;;;5027355;28;20834;-47
2021/07/04 01:17:09;;;;;;;5.90;5.37;;;26.80;51.60;;;;;;5024088;28;20261;-48
2021/07/04 01:19:35;;;;;;;4.83;4.33;;;26.80;51.60;;;;;;5028130;28;21174;-46
2021/07/04 01:22:03;;;;;;;4.20;3.90;;;26.80;51.60;;;;;;5018660;28;20197;-47
2021/07/04 01:24:29;;;;;;;4.67;4.27;;;26.80;51.60;;;;;;5027100;28;20436;-49
2021/07/04 01:26:54;;;;;;;4.37;3.97;;;26.80;51.60;;;;;;5014917;28;20499;-46
2021/07/04 01:29:20;;;;;;;5.40;4.90;;;26.80;51.50;;;;;;5023387;28;20252;-50
2021/07/04 01:31:46;;;;;;;5.10;4.70;;;26.80;51.40;;;;;;5025318;28;20193;-47
2021/07/04 01:34:12;;;;;;;5.50;4.87;;;26.80;51.50;;;;;;5026532;28;20197;-46
2021/07/04 01:36:39;;;;;;;5.33;4.93;;;26.80;51.50;;;;;;5019781;28;20439;-48
2021/07/04 01:39:05;;;;;;;5.27;4.77;;;26.80;51.50;;;;;;5022590;28;20296;-47
2021/07/04 01:41:33;;;;;;;4.80;4.40;;;26.80;51.60;;;;;;5028739;28;20963;-47
2021/07/04 01:43:59;;;;;;;5.37;4.97;;;26.80;51.60;;;;;;5021945;28;20455;-47
2021/07/04 01:46:25;;;;;;;5.40;4.40;;;26.80;51.80;;;;;;5024682;28;20463;-46
2021/07/04 01:48:50;;;;;;;5.63;5.13;;;26.70;51.70;;;;;;5017529;28;20282;-47
2021/07/04 01:51:16;;;;;;;4.93;4.47;;;26.70;51.80;;;;;;5019032;28;20661;-52
2021/07/04 01:53:42;;;;;;;5.40;4.90;;;26.70;51.80;;;;;;5023451;28;20228;-47
2021/07/04 01:56:08;;;;;;;5.60;5.20;;;26.80;51.90;;;;;;5016394;28;20982;-47
2021/07/04 01:58:35;;;;;;;5.17;4.80;;;26.70;51.80;;;;;;5019872;28;20190;-47
2021/07/04 02:01:03;;;;;;;5.73;5.23;;;26.70;51.90;;;;;;5019515;28;20681;-46
2021/07/04 02:03:28;;;;;;;4.70;4.30;;;26.70;52.10;;;;;;5019569;28;20515;-48
2021/07/04 02:05:55;;;;;;;5.17;4.77;;;26.60;52.10;;;;;;5027361;28;20471;-47
2021/07/04 02:08:20;;;;;;;5.27;4.77;;;26.60;52.20;;;;;;5019140;28;20206;-47
2021/07/04 02:10:46;;;;;;;5.00;4.60;;;26.60;52.40;;;;;;5025839;28;21001;-50
2021/07/04 02:13:12;;;;;;;8.90;4.60;;;26.60;52.30;;;;;;5015178;28;20198;-47
2021/07/04 02:15:39;;;;;;;4.83;4.43;;;26.60;52.30;;;;;;5026846;28;20193;-46
2021/07/04 02:18:13;;;;;;;5.87;5.47;;;26.60;52.20;;;;;;5022216;28;20236;-47
2021/07/04 02:20:42;;;;;;;4.00;3.70;;;26.60;52.30;;;;;;5018267;28;20904;-47
2021/07/04 02:23:09;;;;;;;5.40;4.90;;;26.60;52.40;;;;;;5017537;28;20457;-47
2021/07/04 02:25:40;;;;;;;4.37;4.07;;;26.60;52.50;;;;;;5027767;28;20859;-46
2021/07/04 02:28:06;;;;;;;4.70;4.30;;;26.50;52.50;;;;;;5022845;28;20436;-49
2021/07/04 02:30:34;;;;;;;5.10;4.60;;;26.50;52.60;;;;;;5032517;28;20486;-51
2021/07/04 02:33:02;;;;;;;5.33;4.83;;;26.50;52.30;;;;;;5027024;28;20453;-48
2021/07/04 02:35:32;;;;;;;4.93;4.53;;;26.50;52.20;;;;;;5025506;28;20875;-46
2021/07/04 02:37:58;;;;;;;5.97;5.37;;;25.90;54.00;;;;;;5031407;28;20439;-48
2021/07/04 02:40:24;;;;;;;5.40;4.90;;;25.90;54.10;;;;;;5028871;28;20488;-47
2021/07/04 02:42:51;;;;;;;6.00;4.47;;;26.00;53.90;;;;;;5026525;28;20452;-46
2021/07/04 02:45:17;;;;;;;5.30;4.90;;;26.10;53.80;;;;;;5028241;28;20471;-47
2021/07/04 02:47:43;;;;;;;5.67;5.20;;;26.10;53.70;;;;;;5029199;28;20452;-48
2021/07/04 02:50:09;;;;;;;6.87;6.30;;;26.10;53.90;;;;;;5032432;28;20440;-48
2021/07/04 02:52:35;;;;;;;5.70;5.30;;;26.00;53.90;;;;;;5031891;28;20467;-50
2021/07/04 02:55:02;;;;;;;5.07;4.67;;;25.90;54.40;;;;;;5020945;28;20474;-48
2021/07/04 02:57:27;;;;;;;5.67;5.17;;;25.80;54.50;;;;;;5027852;28;20251;-46
2021/07/04 02:59:53;;;;;;;5.30;4.80;;;25.90;54.40;;;;;;5026144;28;20491;-51
2021/07/04 03:02:20;;;;;;;5.83;5.37;;;25.90;54.10;;;;;;5026900;28;20268;-52
2021/07/04 03:04:47;;;;;;;6.60;5.90;;;25.90;54.30;;;;;;5026840;28;20263;-48
2021/07/04 03:07:12;;;;;;;7.23;6.53;;;26.00;54.00;;;;;;5027195;28;20470;-48
2021/07/04 03:09:40;;;;;;;5.80;5.27;;;26.00;54.40;;;;;;5027882;28;20920;-51
2021/07/04 03:12:06;;;;;;;6.77;6.07;;;26.00;54.50;;;;;;5026954;28;20687;-47
2021/07/04 03:14:32;;;;;;;6.17;5.57;;;25.70;55.10;;;;;;5019540;28;20441;-49
2021/07/04 03:16:58;;;;;;;6.83;5.50;;;25.50;55.70;;;;;;5026953;28;20533;-46
2021/07/04 03:19:23;;;;;;;7.90;5.83;;;25.50;55.70;;;;;;5032336;28;20480;-45
2021/07/04 03:21:49;;;;;;;6.70;6.10;;;25.40;56.00;;;;;;5022542;28;20193;-48
2021/07/04 03:24:14;;;;;;;6.63;6.13;;;25.00;56.90;;;;;;5032402;28;20715;-51
2021/07/04 03:26:40;;;;;;;5.70;5.20;;;24.80;57.60;;;;;;5026773;28;20200;-47
2021/07/04 03:29:06;;;;;;;6.33;5.83;;;24.70;58.30;;;;;;5021489;28;20201;-47
2021/07/04 03:31:32;;;;;;;6.13;5.37;;;24.90;58.00;;;;;;5033215;28;20443;-48
2021/07/04 03:33:57;;;;;;;6.20;5.70;;;24.90;57.10;;;;;;5020160;28;20285;-51
2021/07/04 03:36:23;;;;;;;6.70;5.77;;;25.10;57.00;;;;;;5024204;28;20296;-50
2021/07/04 03:38:48;;;;;;;6.80;6.20;;;25.10;56.90;;;;;;5025910;28;20206;-46
2021/07/04 03:41:14;;;;;;;7.70;6.73;;;25.10;57.00;;;;;;5030158;28;20194;-46
2021/07/04 03:43:40;;;;;;;6.03;5.53;;;25.20;57.10;;;;;;5028186;28;20193;-47
2021/07/04 03:46:05;;;;;;;5.77;5.27;;;25.00;57.50;;;;;;5029441;28;20648;-49
2021/07/04 03:48:31;;;;;;;6.17;5.57;;;25.00;57.30;;;;;;5016824;28;20197;-50
2021/07/04 03:50:56;;;;;;;6.10;5.60;;;25.00;57.30;;;;;;5027279;28;20564;-47
2021/07/04 03:53:22;;;;;;;6.00;5.40;;;25.10;57.00;;;;;;5017929;28;20198;-50
2021/07/04 03:55:47;;;;;;;5.80;5.30;;;25.10;57.10;;;;;;5023541;28;20276;-52
2021/07/04 03:58:13;;;;;;;6.30;5.70;;;25.10;57.20;;;;;;5025392;28;20205;-51
2021/07/04 04:00:39;;;;;;;6.13;5.63;;;25.10;57.00;;;;;;5027352;28;20243;-49
2021/07/04 04:03:04;;;;;;;5.63;5.13;;;25.20;56.90;;;;;;5027605;28;20189;-48
2021/07/04 04:05:30;;;;;;;7.07;5.40;;;25.20;57.10;;;;;;5021790;28;20209;-50
2021/07/04 04:07:56;;;;;;;5.67;5.27;;;25.10;57.10;;;;;;5027409;28;20198;-47
2021/07/04 04:10:21;;;;;;;5.23;4.83;;;25.00;57.20;;;;;;5028901;28;20189;-47
2021/07/04 04:12:47;;;;;;;6.90;5.70;;;25.10;57.10;;;;;;5023416;28;20198;-47
2021/07/04 04:15:13;;;;;;;6.00;5.50;;;25.10;57.10;;;;;;5030607;28;20247;-48
2021/07/04 04:17:39;;;;;;;8.10;5.43;;;25.10;57.10;;;;;;5026972;28;20938;-51
2021/07/04 04:20:06;;;;;;;4.83;4.40;;;25.10;57.30;;;;;;5013972;28;20505;-48
2021/07/04 04:22:32;;;;;;;7.63;4.80;;;25.00;57.30;;;;;;5016721;28;20352;-49
2021/07/04 04:24:57;;;;;;;7.13;6.40;;;25.10;57.30;;;;;;5026304;28;20539;-50
2021/07/04 04:27:23;;;;;;;6.60;5.93;;;25.00;58.10;;;;;;5019603;28;20209;-47
2021/07/04 04:29:49;;;;;;;6.20;5.60;;;24.50;60.40;;;;;;5027189;28;20201;-47
2021/07/04 04:32:14;;;;;;;5.73;5.23;;;24.10;60.80;;;;;;5027621;28;20193;-51
2021/07/04 04:34:40;;;;;;;6.10;5.50;;;24.00;60.90;;;;;;5025844;28;20198;-47
2021/07/04 04:37:06;;;;;;;6.70;5.20;;;24.10;60.60;;;;;;5021489;28;20560;-47
2021/07/04 04:39:32;;;;;;;6.10;5.60;;;24.40;60.10;;;;;;5026673;28;20220;-46
2021/07/04 04:41:58;;;;;;;5.57;5.17;;;24.50;59.60;;;;;;5026759;28;20200;-46
2021/07/04 04:44:23;;;;;;;5.37;4.87;;;24.30;60.10;;;;;;5022820;28;20445;-46
2021/07/04 04:46:49;;;;;;;6.23;5.70;;;24.30;59.90;;;;;;5019892;28;20201;-49
2021/07/04 04:49:15;;;;;;;5.07;4.67;;;24.40;59.90;;;;;;5030274;28;20201;-48
2021/07/04 04:51:41;;;;;;;5.90;5.00;;;24.50;59.40;;;;;;5027729;28;20279;-51
2021/07/04 04:54:07;;;;;;;5.03;4.63;;;24.70;58.90;;;;;;5028278;28;20201;-46
2021/07/04 04:56:33;;;;;;;5.90;5.40;;;24.90;58.60;;;;;;5023232;28;20440;-46
2021/07/04 04:58:59;;;;;;;5.67;5.17;;;24.90;58.30;;;;;;5023347;28;20459;-48
2021/07/04 05:01:29;;;;;;;5.00;4.60;;;24.90;58.10;;;;;;5026802;28;20846;-46
2021/07/04 05:03:55;;;;;;;5.20;4.70;;;25.00;57.90;;;;;;5023181;28;20602;-46
2021/07/04 05:06:21;;;;;;;5.50;5.00;;;25.00;57.90;;;;;;5027260;28;20436;-48
2021/07/04 05:08:47;;;;;;;5.60;5.10;;;24.70;58.40;;;;;;5022074;28;21000;-46
2021/07/04 05:11:12;;;;;;;5.60;5.10;;;24.80;58.70;;;;;;5024178;28;20200;-47
2021/07/04 05:13:38;;;;;;;5.10;4.60;;;24.70;59.10;;;;;;5023873;28;20193;-45
2021/07/04 05:16:05;;;;;;;7.47;4.80;;;24.50;59.70;;;;;;5021699;28;20194;-47
2021/07/04 05:18:31;;;;;;;5.97;5.47;;;24.60;59.40;;;;;;5026943;28;20204;-46
2021/07/04 05:20:57;;;;;;;7.50;5.60;;;24.70;59.10;;;;;;5028089;28;20979;-50
2021/07/04 05:23:22;;;;;;;8.93;5.50;;;24.80;58.70;;;;;;5021171;28;20430;-49
2021/07/04 05:25:49;;;;;;;5.00;4.60;;;24.90;58.40;;;;;;5027179;28;20209;-46
2021/07/04 05:28:15;;;;;;;5.17;4.77;;;24.90;58.30;;;;;;5027837;28;20714;-51
2021/07/04 05:30:41;;;;;;;4.93;4.57;;;24.80;58.60;;;;;;5019804;28;20448;-48
2021/07/04 05:33:07;;;;;;;5.57;5.07;;;24.90;58.50;;;;;;5021560;28;20443;-51
2021/07/04 05:35:32;;;;;;;7.20;5.10;;;25.00;58.30;;;;;;5025653;28;20224;-51
2021/07/04 05:37:58;;;;;;;5.63;5.20;;;25.10;57.60;;;;;;5025301;28;20197;-51
2021/07/04 05:40:24;;;;;;;5.07;4.63;;;25.30;57.50;;;;;;5013388;28;20715;-49
2021/07/04 05:42:51;;;;;;;4.93;4.53;;;25.40;57.30;;;;;;5027688;28;20606;-48
2021/07/04 05:45:22;;;;;;;5.53;4.37;;;25.50;56.90;;;;;;5025534;28;20217;-51
2021/07/04 05:47:48;;;;;;;5.00;4.60;;;25.60;56.50;;;;;;5023910;28;20460;-48
2021/07/04 05:50:14;;;;;;;4.90;4.60;;;25.80;56.20;;;;;;5024483;28;20429;-52
2021/07/04 05:52:40;;;;;;;4.67;4.27;;;25.50;56.80;;;;;;5024367;28;20551;-52
2021/07/04 05:55:06;;;;;;;4.83;4.33;;;24.90;58.60;;;;;;5022493;28;20189;-48
2021/07/04 05:57:32;;;;;;;5.40;4.90;;;24.90;58.60;;;;;;5024504;28;20447;-51
2021/07/04 05:59:57;;;;;;;5.07;4.57;;;25.10;57.70;;;;;;5022834;28;20891;-52
2021/07/04 06:02:23;;;;;;;5.23;4.77;;;25.40;57.30;;;;;;5030001;28;20203;-52
2021/07/04 06:04:48;;;;;;;4.93;4.53;;;25.40;57.50;;;;;;5028186;28;20323;-51
2021/07/04 06:07:14;;;;;;;6.57;5.03;;;25.40;57.30;;;;;;5020784;28;20197;-49
2021/07/04 06:09:39;;;;;;;6.10;4.33;;;25.30;57.60;;;;;;5030951;28;20200;-49
2021/07/04 06:12:06;;;;;;;5.83;5.20;;;25.10;58.10;;;;;;5030635;28;20201;-52
2021/07/04 06:14:31;;;;;;;4.77;4.37;;;24.80;58.70;;;;;;5023053;28;20220;-49
2021/07/04 06:16:57;;;;;;;5.67;4.67;;;24.90;58.60;;;;;;5026774;28;20467;-48
2021/07/04 06:19:22;;;;;;;4.70;4.30;;;25.30;57.90;;;;;;5021281;28;20229;-50
2021/07/04 06:21:48;;;;;;;4.90;4.50;;;25.50;57.30;;;;;;5018504;28;20194;-47
2021/07/04 06:24:13;;;;;;;5.90;5.30;;;25.60;56.90;;;;;;5032236;28;20190;-52
2021/07/04 06:26:39;;;;;;;5.27;4.80;;;25.60;56.80;;;;;;5027991;28;20182;-49
2021/07/04 06:29:05;;;;;;;5.20;4.70;;;25.60;56.80;;;;;;5034960;28;20239;-47
2021/07/04 06:31:31;;;;;;;5.50;4.50;;;25.60;56.90;;;;;;5034526;28;20682;-46
2021/07/04 06:33:57;;;;;;;4.93;4.53;;;25.70;55.50;;;;;;5033506;28;20572;-48
2021/07/04 06:36:24;;;;;;;4.57;4.27;;;25.70;55.30;;;;;;5033298;28;20200;-47
2021/07/04 06:38:50;;;;;;;4.67;4.37;;;25.80;55.10;;;;;;5034734;28;20443;-47
2021/07/04 06:41:16;;;;;;;4.70;4.30;;;26.00;54.30;;;;;;5034201;28;20890;-47
2021/07/04 06:43:42;;;;;;;5.83;4.27;;;26.10;53.70;;;;;;5034800;28;20543;-47
2021/07/04 06:46:08;;;;;;;4.40;4.07;;;26.00;53.90;;;;;;5032673;28;20201;-52
2021/07/04 06:48:34;;;;;;;4.93;4.53;;;26.10;53.50;;;;;;5034360;28;20424;-51
2021/07/04 06:50:59;;;;;;;4.20;3.90;;;26.40;53.40;;;;;;5033878;28;20443;-49
2021/07/04 06:53:25;;;;;;;4.60;4.30;;;26.50;53.10;;;;;;5034540;28;20197;-51
2021/07/04 06:55:51;;;;;;;5.50;4.07;;;26.60;52.30;;;;;;5032572;28;20243;-51
2021/07/04 06:58:16;;;;;;;4.60;4.30;;;26.70;51.60;;;;;;5028814;28;20568;-52
2021/07/04 07:00:42;;;;;;;4.17;3.87;;;26.80;51.60;;;;;;5027890;28;20224;-46
2021/07/04 07:03:07;;;;;;;4.67;4.27;;;26.90;51.90;;;;;;5034468;28;20193;-52
2021/07/04 07:05:33;;;;;;;3.73;3.53;;;27.00;52.30;;;;;;5034093;28;20197;-50
2021/07/04 07:07:59;;;;;;;4.20;3.90;;;27.20;51.80;;;;;;5034588;28;20696;-51
2021/07/04 07:10:24;;;;;;;4.80;4.50;;;27.40;52.20;;;;;;5031818;28;20185;-48
2021/07/04 07:12:50;;;;;;;5.03;4.10;;;27.50;51.50;;;;;;5034373;28;20221;-49
2021/07/04 07:15:16;;;;;;;4.70;4.30;;;27.70;50.80;;;;;;5033998;28;20734;-52
2021/07/04 07:17:42;;;;;;;5.00;4.63;;;27.70;50.60;;;;;;5034483;28;20237;-52
2021/07/04 07:20:09;;;;;;;4.90;4.60;;;27.60;50.70;;;;;;5033190;28;20232;-47
2021/07/04 07:22:35;;;;;;;4.87;4.47;;;27.70;50.60;;;;;;5032656;28;20232;-49
2021/07/04 07:25:01;;;;;;;4.80;4.40;;;27.70;50.20;;;;;;5033652;28;20433;-46
2021/07/04 07:27:27;;;;;;;4.80;4.43;;;27.80;50.00;;;;;;5025496;28;20421;-46
2021/07/04 07:29:52;;;;;;;5.03;4.63;;;27.90;50.30;;;;;;5030344;28;20201;-46
2021/07/04 07:32:18;;;;;;;4.93;4.53;;;28.00;49.70;;;;;;5024482;28;20193;-46
2021/07/04 07:34:43;;;;;;;4.53;4.13;;;28.10;49.40;;;;;;5033539;28;20247;-46
2021/07/04 07:37:09;;;;;;;5.17;4.80;;;28.10;48.80;;;;;;5033740;28;20194;-46
2021/07/04 07:39:35;;;;;;;5.07;4.67;;;28.10;49.00;;;;;;5032723;28;20236;-46
2021/07/04 07:42:01;;;;;;;4.80;4.50;;;28.20;48.60;;;;;;5031176;28;20232;-47
2021/07/04 07:44:26;;;;;;;4.87;4.50;;;28.40;48.10;;;;;;5030816;28;20213;-47
2021/07/04 07:46:52;;;;;;;5.03;4.53;;;28.50;47.50;;;;;;5033013;28;20443;-46
2021/07/04 07:49:18;;;;;;;4.97;4.67;;;28.50;47.50;;;;;;5033391;28;20201;-47
2021/07/04 07:51:48;;;;;;;4.63;4.23;;;28.70;46.50;;;;;;5033119;28;20228;-48
2021/07/04 07:54:14;;;;;;;6.00;5.17;;;28.80;46.70;;;;;;5030065;28;20212;-46
2021/07/04 07:56:40;;;;;;;4.60;4.20;;;28.90;46.60;;;;;;5031564;28;20444;-48
2021/07/04 07:59:05;;;;;;;5.27;4.83;;;29.00;46.30;;;;;;5021357;28;20197;-50
2021/07/04 08:01:31;;;;;;;4.37;3.97;;;29.00;46.50;;;;;;5033052;28;20247;-49
2021/07/04 08:03:56;;;;;;;4.50;4.20;;;29.10;46.40;;;;;;5033255;28;20228;-48
2021/07/04 08:06:22;;;;;;;5.07;4.70;;;29.30;46.80;;;;;;5033099;28;20192;-47
2021/07/04 08:08:47;;;;;;;5.70;5.23;;;29.50;45.70;;;;;;5031000;28;20201;-50
2021/07/04 08:11:13;;;;;;;5.43;5.03;;;29.70;45.90;;;;;;5032757;28;20200;-50
2021/07/04 08:13:38;;;;;;;4.83;4.43;;;29.90;45.30;;;;;;5033126;28;20243;-51
2021/07/04 08:16:04;;;;;;;5.53;4.93;;;30.00;44.60;;;;;;5032259;28;20198;-46
2021/07/04 08:18:30;;;;;;;5.00;4.60;;;30.00;44.80;;;;;;5030875;28;20239;-47
2021/07/04 08:20:56;;;;;;;5.33;4.87;;;29.90;44.50;;;;;;5030724;28;20489;-47
2021/07/04 08:23:21;;;;;;;5.17;4.77;;;29.80;45.00;;;;;;5032393;28;20212;-49
2021/07/04 08:25:47;;;;;;;4.27;3.80;;;29.50;45.30;;;;;;5032330;28;20304;-49
2021/07/04 08:28:13;;;;;;;5.20;4.80;;;29.40;45.40;;;;;;5021322;28;20644;-52
2021/07/04 08:30:39;;;;;;;4.63;4.30;;;29.20;46.10;;;;;;5020408;28;20614;-48
2021/07/04 08:33:05;;;;;;;5.97;5.37;;;29.20;46.50;;;;;;5024246;28;20197;-48
2021/07/04 08:35:31;;;;;;;5.17;4.77;;;29.40;45.80;;;;;;5020992;28;20193;-46
2021/07/04 08:37:57;;;;;;;5.27;4.87;;;29.60;45.30;;;;;;5023067;28;20511;-52
2021/07/04 08:40:23;;;;;;;5.13;4.70;;;29.60;45.80;;;;;;5021281;28;20484;-47
2021/07/04 08:42:49;;;;;;;5.00;4.60;;;29.70;46.00;;;;;;5024081;28;20488;-51
2021/07/04 08:45:14;;;;;;;5.77;5.30;;;29.80;45.70;;;;;;5025851;28;20577;-51
2021/07/04 08:47:40;;;;;;;5.00;4.60;;;29.80;45.40;;;;;;5024804;28;20209;-48
2021/07/04 08:50:07;;;;;;;5.17;4.37;;;29.60;45.80;;;;;;5022943;28;20197;-51
2021/07/04 08:52:36;;;;;;;5.20;4.70;;;29.60;46.30;;;;;;5025763;28;20477;-52
2021/07/04 08:55:05;;;;;;;4.53;4.17;;;29.70;46.00;;;;;;5022913;28;20440;-47
2021/07/04 08:57:31;;;;;;;4.87;4.47;;;29.80;45.50;;;;;;5021867;28;20494;-52
2021/07/04 08:59:57;;;;;;;5.03;4.70;;;29.90;45.70;;;;;;5026802;28;20496;-52
2021/07/04 09:02:37;;;;;;;5.20;4.80;;;29.80;45.10;;;;;;5021262;28;20221;-52
2021/07/04 09:05:06;;;;;;;5.00;4.60;;;29.80;45.10;;;;;;5021983;28;20197;-51
2021/07/04 09:07:32;;;;;;;4.13;3.87;;;29.70;45.30;;;;;;5019758;28;20443;-51
2021/07/04 09:10:02;;;;;;;4.67;4.27;;;29.70;44.30;;;;;;5023890;28;20511;-50
2021/07/04 09:12:36;;;;;;;4.30;4.00;;;29.80;44.10;;;;;;5025045;28;20454;-50
2021/07/04 09:15:24;;;;;;;5.40;4.30;;;29.70;44.00;;;;;;5017890;28;20939;-50
2021/07/04 09:17:53;;;;;;;4.40;4.10;;;29.80;43.50;;;;;;5018432;28;20556;-51
2021/07/04 09:20:29;;;;;;;3.90;3.63;;;29.90;43.60;;;;;;5019929;28;20582;-51
2021/07/04 09:22:57;;;;;;;3.93;3.63;;;29.90;43.60;;;;;;5021519;28;20437;-51
2021/07/04 09:25:28;;;;;;;4.30;4.00;;;29.80;43.50;;;;;;5026596;28;20767;-50
2021/07/04 09:28:13;;;;;;;4.23;3.87;;;29.70;43.70;;;;;;5019582;28;20472;-51
2021/07/04 09:30:54;;;;;;;4.10;3.80;;;29.80;44.20;;;;;;5018572;28;20441;-49
2021/07/04 09:33:22;;;;;;;4.43;4.10;;;29.90;43.60;;;;;;5021538;28;20448;-49
2021/07/04 09:36:14;;;;;;;4.50;4.20;;;29.90;43.70;;;;;;5026670;28;20444;-50
2021/07/04 09:38:43;;;;;;;5.20;4.77;;;29.60;44.80;;;;;;5022430;28;20457;-50
2021/07/04 09:41:12;;;;;;;4.80;4.40;;;29.50;45.30;;;;;;5023003;28;20514;-48
2021/07/04 09:43:39;;;;;;;5.00;4.60;;;29.40;45.40;;;;;;5025904;28;20440;-51
2021/07/04 09:46:06;;;;;;;5.00;4.50;;;29.60;45.50;;;;;;5023785;28;20523;-49
2021/07/04 09:48:42;;;;;;;5.30;4.90;;;29.80;45.00;;;;;;5028617;28;20946;-49
2021/07/04 09:51:27;;;;;;;5.70;4.63;;;29.80;44.60;;;;;;5027977;28;20436;-50
2021/07/04 09:53:56;;;;;;;6.73;3.87;;;29.90;45.00;;;;;;5019860;28;20480;-51
2021/07/04 09:56:23;;;;;;;4.27;3.90;;;30.20;45.50;;;;;;5020379;28;20747;-49
2021/07/04 09:58:52;;;;;;;4.57;4.20;;;30.20;43.90;;;;;;5023549;28;20479;-51
2021/07/04 10:01:38;;;;;;;4.20;3.90;;;30.30;44.30;;;;;;5020953;28;20487;-50
2021/07/04 10:04:07;;;;;;;3.80;3.50;;;30.70;43.90;;;;;;5022661;28;20566;-50
2021/07/04 10:06:46;;;;;;;4.33;3.93;;;30.60;42.00;;;;;;5027186;28;20549;-50
2021/07/04 10:09:12;;;;;;;4.80;3.90;;;30.60;42.40;;;;;;5030353;28;20436;-49
2021/07/04 10:11:38;;;;;;;3.83;3.53;;;30.70;41.20;;;;;;5022296;28;20539;-51
2021/07/04 10:14:03;;;;;;;4.10;3.80;;;30.80;40.70;;;;;;5029329;28;20985;-50
2021/07/04 10:16:29;;;;;;;3.80;3.50;;;31.00;40.90;;;;;;5026362;28;20236;-49
2021/07/04 10:19:00;;;;;;;3.47;3.27;;;31.10;40.20;;;;;;5024923;28;20618;-52
2021/07/04 10:21:27;;;;;;;4.03;3.20;;;31.00;40.80;;;;;;5023041;28;20489;-51
2021/07/04 10:23:56;;;;;;;3.60;3.40;;;31.10;40.90;;;;;;5026426;28;20826;-46
2021/07/04 10:26:24;;;;;;;3.77;3.50;;;31.20;39.90;;;;;;5024137;28;20455;-48
2021/07/04 10:28:50;;;;;;;3.90;3.67;;;31.00;40.90;;;;;;5028592;28;20447;-49
2021/07/04 10:31:19;;;;;;;3.50;3.30;;;31.10;40.40;;;;;;5029554;28;20864;-50
2021/07/04 10:33:45;;;;;;;4.50;4.10;;;31.20;40.40;;;;;;5024093;28;20464;-50
2021/07/04 10:36:20;;;;;;;4.00;3.70;;;31.20;40.60;;;;;;5022769;28;20794;-51
2021/07/04 10:39:01;;;;;;;3.90;3.70;;;31.30;40.10;;;;;;5019595;28;20447;-52
2021/07/04 10:41:33;;;;;;;3.83;3.53;;;31.40;39.30;;;;;;5021114;28;20815;-47
2021/07/04 10:44:12;;;;;;;4.60;4.20;;;31.20;39.80;;;;;;5013410;28;20536;-49
2021/07/04 10:46:44;;;;;;;3.77;3.47;;;31.40;40.20;;;;;;5018009;28;20486;-51
2021/07/04 10:49:18;;;;;;;3.53;3.33;;;31.20;40.50;;;;;;5032750;28;20701;-50
2021/07/04 10:51:58;;;;;;;4.30;3.90;;;31.20;40.30;;;;;;5031590;28;20446;-45
2021/07/04 10:54:46;;;;;;;4.60;4.17;;;30.90;41.10;;;;;;5023290;28;20443;-45
2021/07/04 10:57:23;;;;;;;6.00;5.43;;;30.90;41.80;;;;;;5021239;28;20436;-47
2021/07/04 11:02:45;;;;;;;3.50;3.30;;;30.60;41.60;;;;;;5028487;28;20443;-45
2021/07/04 11:05:39;;;;;;;3.60;3.40;;;30.10;42.10;;;;;;5027932;28;20800;-47
2021/07/04 11:08:13;;;;;;;3.80;3.50;;;30.10;42.70;;;;;;5019791;28;20437;-46
2021/07/04 11:10:49;;;;;;;4.97;4.43;;;30.20;42.10;;;;;;5024357;28;20454;-46
2021/07/04 11:13:15;;;;;;;4.40;4.00;;;30.20;42.80;;;;;;5029856;28;20509;-51
2021/07/04 11:16:03;;;;;;;4.43;4.10;;;30.20;43.00;;;;;;5016509;28;20928;-48
2021/07/04 11:19:00;;;;;;;4.00;3.70;;;30.30;43.50;;;;;;5019064;28;20197;-47
2021/07/04 11:21:46;;;;;;;3.90;3.50;;;30.60;42.90;;;;;;5022651;28;20625;-47
2021/07/04 11:24:17;;;;;;;4.03;3.63;;;30.80;42.70;;;;;;5026798;28;20440;-45
2021/07/04 11:27:03;;;;;;;4.07;3.77;;;30.70;42.10;;;;;;5032586;28;20511;-45
2021/07/04 11:29:28;;;;;;;4.03;3.73;;;30.70;42.00;;;;;;5021471;28;20445;-46
2021/07/04 11:31:54;;;;;;;4.13;3.83;;;30.80;41.60;;;;;;5031704;28;20436;-47
2021/07/04 11:34:19;;;;;;;3.73;3.53;;;31.00;41.30;;;;;;5025504;28;20205;-45
2021/07/04 11:36:47;;;;;;;3.93;3.63;;;31.10;41.20;;;;;;5026716;28;20201;-45
2021/07/04 11:39:13;;;;;;;5.53;4.10;;;31.00;41.00;;;;;;5030048;28;20701;-46
2021/07/04 11:41:40;;;;;;;4.13;3.73;;;31.10;40.90;;;;;;5024723;28;20451;-45
2021/07/04 11:44:07;;;;;;;5.40;3.50;;;31.10;40.60;;;;;;5026161;28;20927;-49
2021/07/04 11:46:38;;;;;;;4.03;3.73;;;31.10;40.90;;;;;;5025761;28;20448;-46
2021/07/04 11:49:10;;;;;;;4.13;3.73;;;31.20;40.60;;;;;;5019838;28;20435;-46
2021/07/04 11:51:48;;;;;;;3.80;3.50;;;31.10;40.60;;;;;;5030820;28;21004;-46
2021/07/04 11:54:23;;;;;;;4.10;3.80;;;31.10;40.20;;;;;;5031634;28;20455;-49
2021/07/04 11:57:30;;;;;;;4.00;3.70;;;31.10;40.00;;;;;;5022533;28;20444;-47
2021/07/04 11:59:58;;;;;;;3.50;3.30;;;31.10;39.60;;;;;;5022559;28;20503;-50
2021/07/04 12:02:25;;;;;;;3.90;3.27;;;31.10;39.50;;;;;;5014747;28;20861;-46
2021/07/04 12:04:50;;;;;;;3.53;3.20;;;31.00;39.20;;;;;;5022156;28;20551;-47
2021/07/04 12:07:20;;;;;;;4.37;3.97;;;30.80;39.60;;;;;;5023039;28;20445;-47
2021/07/04 12:09:50;;;;;;;3.97;3.63;;;30.70;39.70;;;;;;5024744;28;20208;-46
2021/07/04 12:12:32;;;;;;;3.67;3.47;;;30.80;39.30;;;;;;5032424;28;20537;-48
2021/07/04 12:15:02;;;;;;;3.73;3.43;;;31.00;39.10;;;;;;5031137;28;20467;-47
2021/07/04 12:17:39;;;;;;;3.67;3.37;;;31.10;39.40;;;;;;5023894;28;20484;-47
2021/07/04 12:20:06;;;;;;;3.00;2.80;;;31.10;40.00;;;;;;5021722;28;20842;-47
2021/07/04 12:22:48;;;;;;;3.20;3.00;;;31.10;39.90;;;;;;5028740;28;20502;-48
2021/07/04 12:25:18;;;;;;;3.83;3.47;;;31.10;40.00;;;;;;5032321;28;20420;-46
2021/07/04 12:27:47;;;;;;;3.50;3.20;;;31.10;39.80;;;;;;5016362;28;20459;-48
2021/07/04 12:30:15;;;;;;;3.80;3.40;;;31.10;40.60;;;;;;5020957;28;20531;-47
2021/07/04 12:33:04;;;;;;;3.87;3.57;;;30.80;41.20;;;;;;5025484;28;20514;-51
2021/07/04 12:35:32;;;;;;;4.03;3.50;;;30.70;41.00;;;;;;5020181;28;20463;-47
2021/07/04 12:38:14;;;;;;;3.47;3.23;;;30.50;40.10;;;;;;5015214;28;20445;-49
2021/07/04 12:40:46;;;;;;;3.30;3.03;;;30.60;40.10;;;;;;5026726;28;20525;-48
2021/07/04 12:43:14;;;;;;;3.70;3.50;;;30.70;40.40;;;;;;5023650;28;20460;-48
2021/07/04 12:45:46;;;;;;;4.00;3.70;;;30.80;40.20;;;;;;5025176;28;20535;-47
2021/07/04 12:48:13;;;;;;;4.37;3.97;;;30.80;40.80;;;;;;5018788;28;20455;-45
2021/07/04 12:50:49;;;;;;;3.47;3.17;;;30.80;41.00;;;;;;5024774;28;20928;-46
2021/07/04 12:53:15;;;;;;;3.33;3.13;;;30.90;40.60;;;;;;5018917;28;20431;-45
2021/07/04 12:55:50;;;;;;;3.50;3.30;;;30.90;40.30;;;;;;5014879;28;20806;-50